createdAt,value
2023-02-01T00:00:13.734Z,5.09
2023-02-01T00:02:44.000Z,4.96
2023-02-01T00:05:13.735Z,4.85
2023-02-01T00:07:52.125Z,4.85
2023-02-01T00:10:24.553Z,4.84
2023-02-01T00:12:56.609Z,4.73
2023-02-01T00:15:37.002Z,4.63
2023-02-01T00:18:08.413Z,4.69
2023-02-01T00:20:37.329Z,4.61
2023-02-01T00:23:11.651Z,4.55
2023-02-01T00:25:42.049Z,4.64
2023-02-01T00:28:14.856Z,4.71
2023-02-01T00:30:52.378Z,4.67
2023-02-01T00:33:21.438Z,4.70
2023-02-01T00:35:52.588Z,4.76
2023-02-01T00:38:21.403Z,4.61
2023-02-01T00:41:12.845Z,4.61
2023-02-01T00:43:44.599Z,4.67
2023-02-01T00:46:14.329Z,4.47
2023-02-01T00:48:46.764Z,4.48
2023-02-01T00:51:18.180Z,4.29
2023-02-01T00:53:58.161Z,4.23
2023-02-01T00:56:37.529Z,4.33
2023-02-01T00:59:16.984Z,4.45
2023-02-01T01:01:45.954Z,4.44
2023-02-01T01:04:16.186Z,4.36
2023-02-01T01:07:07.400Z,4.42
2023-02-01T01:09:34.574Z,4.39
2023-02-01T01:12:08.324Z,4.25
2023-02-01T01:14:37.201Z,4.24
2023-02-01T01:17:08.489Z,4.24
2023-02-01T01:19:39.815Z,4.40
2023-02-01T01:22:08.671Z,3.94
2023-02-01T01:24:38.742Z,4.28
2023-02-01T01:27:10.997Z,4.43
2023-02-01T01:29:42.463Z,4.39
2023-02-01T01:32:11.304Z,4.47
2023-02-01T01:34:49.906Z,4.45
2023-02-01T01:37:18.802Z,4.36
2023-02-01T01:39:57.919Z,4.39
2023-02-01T01:42:42.481Z,4.46
2023-02-01T01:45:23.076Z,4.37
2023-02-01T01:47:57.201Z,4.52
2023-02-01T01:50:30.647Z,4.49
2023-02-01T01:53:03.012Z,4.65
2023-02-01T01:55:38.366Z,4.57
2023-02-01T01:58:11.137Z,4.48
2023-02-01T02:00:42.094Z,4.47
2023-02-01T02:03:17.052Z,4.54
2023-02-01T02:05:47.256Z,4.69
2023-02-01T02:08:24.997Z,4.65
2023-02-01T02:11:05.594Z,4.68
2023-02-01T02:13:39.199Z,4.49
2023-02-01T02:16:31.437Z,4.43
2023-02-01T02:19:39.170Z,4.40
2023-02-01T02:22:40.053Z,4.25
2023-02-01T02:25:44.870Z,4.17
2023-02-01T02:28:37.567Z,4.31
2023-02-01T02:31:26.388Z,4.23
2023-02-01T02:34:08.043Z,4.34
2023-02-01T02:36:51.947Z,4.41
2023-02-01T02:39:32.115Z,4.31
2023-02-01T02:42:30.690Z,4.41
2023-02-01T02:45:24.811Z,4.54
2023-02-01T02:48:06.374Z,4.55
2023-02-01T02:51:01.542Z,4.41
2023-02-01T02:53:56.287Z,4.39
2023-02-01T02:56:46.174Z,4.31
2023-02-01T02:59:37.103Z,4.51
2023-02-01T03:02:24.219Z,4.60
2023-02-01T03:04:57.296Z,4.74
2023-02-01T03:08:00.152Z,4.89
2023-02-01T03:10:38.347Z,4.77
2023-02-01T03:13:09.302Z,4.93
2023-02-01T03:15:44.928Z,4.98
2023-02-01T03:18:27.271Z,5.09
2023-02-01T03:20:57.790Z,5.03
2023-02-01T03:23:35.583Z,4.97
2023-02-01T03:26:06.676Z,4.89
2023-02-01T03:28:46.234Z,4.91
2023-02-01T03:31:31.461Z,4.92
2023-02-01T03:34:00.836Z,4.89
2023-02-01T03:36:36.213Z,4.82
2023-02-01T03:39:14.066Z,4.75
2023-02-01T03:41:51.126Z,4.79
2023-02-01T03:44:24.912Z,4.93
2023-02-01T03:46:58.919Z,4.99
2023-02-01T03:49:31.148Z,5.04
2023-02-01T03:52:01.795Z,5.02
2023-02-01T03:54:35.756Z,5.01
2023-02-01T03:57:14.648Z,5.02
2023-02-01T03:59:44.597Z,5.06
2023-02-01T04:02:13.712Z,5.09
2023-02-01T04:04:42.641Z,5.05
2023-02-01T04:07:13.044Z,5.06
2023-02-01T04:09:43.390Z,5.16
2023-02-01T04:12:12.254Z,5.22
2023-02-01T04:14:44.086Z,5.17
2023-02-01T04:17:15.968Z,5.15
2023-02-01T04:19:46.534Z,5.18
2023-02-01T04:22:17.503Z,5.15
2023-02-01T04:24:56.526Z,5.18
2023-02-01T04:27:28.615Z,5.20
2023-02-01T04:30:02.220Z,5.17
2023-02-01T04:32:37.383Z,5.13
2023-02-01T04:35:14.677Z,5.13
2023-02-01T04:37:43.877Z,5.20
2023-02-01T04:40:17.493Z,5.16
2023-02-01T04:43:04.730Z,5.16
2023-02-01T04:45:37.916Z,5.17
2023-02-01T04:48:10.996Z,5.14
2023-02-01T04:50:42.179Z,5.09
2023-02-01T04:53:13.583Z,5.08
2023-02-01T04:55:46.648Z,5.07
2023-02-01T04:58:20.919Z,5.11
2023-02-01T05:00:56.019Z,5.14
2023-02-01T05:03:27.865Z,5.14
2023-02-01T05:05:58.972Z,5.12
2023-02-01T05:08:37.863Z,5.14
2023-02-01T05:11:29.363Z,5.15
2023-02-01T05:14:03.710Z,5.17
2023-02-01T05:16:32.818Z,5.20
2023-02-01T05:19:05.334Z,5.19
2023-02-01T05:21:51.227Z,5.24
2023-02-01T05:24:22.177Z,5.21
2023-02-01T05:26:52.703Z,5.19
2023-02-01T05:29:23.850Z,5.20
2023-02-01T05:31:53.174Z,5.19
2023-02-01T05:34:35.995Z,5.19
2023-02-01T05:37:30.930Z,5.19
2023-02-01T05:43:03.714Z,5.26
2023-02-01T05:45:57.693Z,5.24
2023-02-01T05:48:27.125Z,5.22
2023-02-01T05:50:59.523Z,5.23
2023-02-01T05:53:31.970Z,5.26
2023-02-01T05:56:12.184Z,5.28
2023-02-01T05:58:45.827Z,5.28
2023-02-01T06:01:25.604Z,5.26
2023-02-01T06:03:56.359Z,5.27
2023-02-01T06:06:29.980Z,5.27
2023-02-01T06:08:59.004Z,5.29
2023-02-01T06:11:34.655Z,5.28
2023-02-01T06:14:09.554Z,5.26
2023-02-01T06:16:39.925Z,5.23
2023-02-01T06:19:09.978Z,5.20
2023-02-01T06:21:39.815Z,5.22
2023-02-01T06:24:11.898Z,5.14
2023-02-01T06:26:41.469Z,5.02
2023-02-01T06:29:38.969Z,4.98
2023-02-01T06:32:13.005Z,4.95
2023-02-01T06:34:47.807Z,4.96
2023-02-01T06:37:23.033Z,4.93
2023-02-01T06:40:00.722Z,4.90
2023-02-01T06:42:32.118Z,4.85
2023-02-01T06:45:02.863Z,4.87
2023-02-01T06:47:34.094Z,4.87
2023-02-01T06:50:06.276Z,4.83
2023-02-01T06:52:35.643Z,4.81
2023-02-01T06:55:04.633Z,4.83
2023-02-01T06:57:38.526Z,4.86
2023-02-01T07:00:14.933Z,4.83
2023-02-01T07:02:47.598Z,4.88
2023-02-01T07:05:24.241Z,4.93
2023-02-01T07:07:56.199Z,4.93
2023-02-01T07:10:27.425Z,4.91
2023-02-01T07:13:02.400Z,4.99
2023-02-01T07:15:39.452Z,4.99
2023-02-01T07:18:17.350Z,5.08
2023-02-01T07:20:53.610Z,5.11
2023-02-01T07:23:22.396Z,5.08
2023-02-01T07:25:54.813Z,5.12
2023-02-01T07:28:28.418Z,5.12
2023-02-01T07:31:16.710Z,5.18
2023-02-01T07:33:53.710Z,5.19
2023-02-01T07:36:23.056Z,5.20
2023-02-01T07:38:56.559Z,5.19
2023-02-01T07:41:27.932Z,5.20
2023-02-01T07:43:56.934Z,5.18
2023-02-01T07:46:28.932Z,5.28
2023-02-01T07:49:00.106Z,5.28
2023-02-01T07:51:32.163Z,5.38
2023-02-01T07:54:03.562Z,5.49
2023-02-01T07:56:37.788Z,5.59
2023-02-01T07:59:13.445Z,5.62
2023-02-01T08:01:53.167Z,5.55
2023-02-01T08:04:26.818Z,5.45
2023-02-01T08:07:15.892Z,5.36
2023-02-01T08:09:47.577Z,5.35
2023-02-01T08:12:25.558Z,5.32
2023-02-01T08:14:59.643Z,5.42
2023-02-01T08:20:27.645Z,5.43
2023-02-01T08:23:05.358Z,5.60
2023-02-01T08:25:35.986Z,5.74
2023-02-01T08:28:05.318Z,5.76
2023-02-01T08:30:45.221Z,5.96
2023-02-01T08:33:22.359Z,6.03
2023-02-01T08:35:55.347Z,5.98
2023-02-01T08:38:38.258Z,5.84
2023-02-01T08:41:14.776Z,5.82
2023-02-01T08:43:48.336Z,5.84
2023-02-01T08:46:20.498Z,5.84
2023-02-01T08:49:00.067Z,5.71
2023-02-01T08:51:35.292Z,5.59
2023-02-01T08:54:05.020Z,5.58
2023-02-01T08:56:42.396Z,5.39
2023-02-01T08:59:15.937Z,5.40
2023-02-01T09:01:48.358Z,5.45
2023-02-01T09:04:29.037Z,5.57
2023-02-01T09:07:01.575Z,5.64
2023-02-01T09:09:41.833Z,5.71
2023-02-01T09:12:14.722Z,5.57
2023-02-01T09:15:09.455Z,5.41
2023-02-01T09:17:38.733Z,5.41
2023-02-01T09:20:21.953Z,5.30
2023-02-01T09:23:03.442Z,5.38
2023-02-01T09:25:36.874Z,5.36
2023-02-01T09:28:07.098Z,5.25
2023-02-01T09:31:27.464Z,5.36
2023-02-01T09:33:29.822Z,5.31
2023-02-01T09:36:05.803Z,5.25
2023-02-01T09:38:44.507Z,5.11
2023-02-01T09:41:40.772Z,5.08
2023-02-01T09:44:25.625Z,5.07
2023-02-01T09:47:01.568Z,5.20
2023-02-01T09:49:51.839Z,5.24
2023-02-01T09:52:27.798Z,5.25
2023-02-01T09:55:13.128Z,5.26
2023-02-01T09:57:59.488Z,5.18
2023-02-01T10:00:32.177Z,5.22
2023-02-01T10:03:04.728Z,5.27
2023-02-01T10:06:13.865Z,5.29
2023-02-01T10:09:04.616Z,5.31
2023-02-01T10:11:53.019Z,5.35
2023-02-01T10:15:03.497Z,5.33
2023-02-01T10:18:02.536Z,5.44
2023-02-01T10:20:42.067Z,5.43
2023-02-01T10:23:36.502Z,5.44
2023-02-01T10:26:19.999Z,5.43
2023-02-01T10:28:53.936Z,5.32
2023-02-01T10:31:26.490Z,5.25
2023-02-01T10:34:00.789Z,5.28
2023-02-01T10:36:37.292Z,5.37
2023-02-01T10:39:09.034Z,5.39
2023-02-01T10:41:41.243Z,5.42
2023-02-01T10:44:17.847Z,5.47
2023-02-01T10:46:46.980Z,5.60
2023-02-01T10:49:20.517Z,5.66
2023-02-01T10:51:56.684Z,5.57
2023-02-01T10:54:35.765Z,5.58
2023-02-01T10:57:09.032Z,5.51
2023-02-01T10:59:39.537Z,5.37
2023-02-01T11:02:22.581Z,5.33
2023-02-01T11:04:52.018Z,5.49
2023-02-01T11:07:26.086Z,5.54
2023-02-01T11:09:57.535Z,5.61
2023-02-01T11:12:32.877Z,5.84
2023-02-01T11:15:15.636Z,5.99
2023-02-01T11:17:46.675Z,6.09
2023-02-01T11:20:21.480Z,6.00
2023-02-01T11:22:56.299Z,6.15
2023-02-01T11:25:27.880Z,6.48
2023-02-01T11:28:00.943Z,6.54
2023-02-01T11:30:39.453Z,6.63
2023-02-01T11:33:11.466Z,6.99
2023-02-01T11:35:42.287Z,7.20
2023-02-01T11:38:22.078Z,7.15
2023-02-01T11:40:52.007Z,7.19
2023-02-01T11:43:26.959Z,7.11
2023-02-01T11:46:03.453Z,7.10
2023-02-01T11:48:35.409Z,7.08
2023-02-01T11:51:24.343Z,7.30
2023-02-01T11:54:32.288Z,7.18
2023-02-01T11:57:20.604Z,7.08
2023-02-01T12:00:19.979Z,6.99
2023-02-01T12:04:06.530Z,7.16
2023-02-01T12:07:07.445Z,7.34
2023-02-01T12:09:55.304Z,7.50
2023-02-01T12:12:47.934Z,7.51
2023-02-01T12:15:56.675Z,7.57
2023-02-01T12:19:05.754Z,7.51
2023-02-01T12:22:02.175Z,7.53
2023-02-01T12:24:56.219Z,7.64
2023-02-01T12:27:59.822Z,7.50
2023-02-01T12:31:06.675Z,7.39
2023-02-01T12:33:54.963Z,7.30
2023-02-01T12:36:55.970Z,7.23
2023-02-01T12:39:34.629Z,7.19
2023-02-01T12:42:14.744Z,7.15
2023-02-01T12:44:51.847Z,7.12
2023-02-01T12:47:33.978Z,7.08
2023-02-01T12:50:33.858Z,6.95
2023-02-01T12:53:29.286Z,6.87
2023-02-01T12:56:04.851Z,6.85
2023-02-01T12:59:14.048Z,6.96
2023-02-01T13:02:13.375Z,7.03
2023-02-01T13:06:09.566Z,7.06
2023-02-01T13:09:46.925Z,6.94
2023-02-01T13:12:33.057Z,6.69
2023-02-01T13:19:08.467Z,6.88
2023-02-01T13:23:12.549Z,6.79
2023-02-01T13:26:07.763Z,6.75
2023-02-01T13:29:12.553Z,6.74
2023-02-01T13:33:51.634Z,6.76
2023-02-01T13:35:53.925Z,6.93
2023-02-01T13:39:19.713Z,7.01
2023-02-01T13:41:59.635Z,6.91
2023-02-01T13:44:48.147Z,6.86
2023-02-01T13:47:34.759Z,6.85
2023-02-01T13:50:29.793Z,6.69
2023-02-01T13:53:23.434Z,6.69
2023-02-01T13:56:06.958Z,6.60
2023-02-01T13:58:41.341Z,6.50
2023-02-01T14:01:35.287Z,6.53
2023-02-01T14:04:09.812Z,6.54
2023-02-01T14:06:46.931Z,6.53
2023-02-01T14:09:20.217Z,6.58
2023-02-01T14:11:52.951Z,6.69
2023-02-01T14:14:57.162Z,6.63
2023-02-01T14:17:37.821Z,6.60
2023-02-01T14:20:49.801Z,6.55
2023-02-01T14:23:22.974Z,6.53
2023-02-01T14:26:10.883Z,6.44
2023-02-01T14:28:47.161Z,6.40
2023-02-01T14:31:45.569Z,6.39
2023-02-01T14:34:22.362Z,6.34
2023-02-01T14:36:58.533Z,6.34
2023-02-01T14:39:39.552Z,6.35
2023-02-01T14:42:24.973Z,6.28
2023-02-01T14:44:58.699Z,6.31
2023-02-01T14:47:37.210Z,6.21
2023-02-01T14:50:37.951Z,5.11
2023-02-01T14:53:24.642Z,6.01
2023-02-01T14:55:57.464Z,6.02
2023-02-01T14:58:42.385Z,5.98
2023-02-01T15:01:22.672Z,5.95
2023-02-01T15:04:03.746Z,5.84
2023-02-01T15:06:38.089Z,5.80
2023-02-01T15:09:11.908Z,5.79
2023-02-01T15:12:01.925Z,5.72
2023-02-01T15:14:33.378Z,5.72
2023-02-01T15:17:06.917Z,5.71
2023-02-01T15:19:37.579Z,5.69
2023-02-01T15:22:06.702Z,5.72
2023-02-01T15:24:35.809Z,5.71
2023-02-01T15:27:08.758Z,5.76
2023-02-01T15:29:37.990Z,5.43
2023-02-01T15:32:07.745Z,5.73
2023-02-01T15:34:53.581Z,5.75
2023-02-01T15:37:40.982Z,5.84
2023-02-01T15:40:37.919Z,5.89
2023-02-01T15:43:25.995Z,6.00
2023-02-01T15:45:58.425Z,5.97
2023-02-01T15:48:33.935Z,5.81
2023-02-01T15:51:10.173Z,5.67
2023-02-01T15:53:48.243Z,5.67
2023-02-01T15:56:25.552Z,5.51
2023-02-01T15:59:02.829Z,5.38
2023-02-01T16:01:43.937Z,5.33
2023-02-01T16:04:21.849Z,5.32
2023-02-01T16:07:02.885Z,5.27
2023-02-01T16:09:59.925Z,5.18
2023-02-01T16:12:40.379Z,5.18
2023-02-01T16:15:12.928Z,5.17
2023-02-01T16:17:44.945Z,5.10
2023-02-01T16:20:19.924Z,5.10
2023-02-01T16:23:01.866Z,5.07
2023-02-01T16:25:47.659Z,5.02
2023-02-01T16:28:21.694Z,4.99
2023-02-01T16:31:09.789Z,4.89
2023-02-01T16:34:50.593Z,4.89
2023-02-01T16:37:00.677Z,4.85
2023-02-01T16:39:40.254Z,4.87
2023-02-01T16:42:28.255Z,4.87
2023-02-01T16:45:02.011Z,4.81
2023-02-01T16:47:46.695Z,4.84
2023-02-01T16:50:37.165Z,4.86
2023-02-01T16:53:16.137Z,4.91
2023-02-01T16:56:13.830Z,4.86
2023-02-01T16:59:04.565Z,4.87
2023-02-01T17:01:40.051Z,4.86
2023-02-01T17:04:27.618Z,4.87
2023-02-01T17:07:09.261Z,4.91
2023-02-01T17:09:53.350Z,4.86
2023-02-01T17:12:57.283Z,4.84
2023-02-01T17:15:46.729Z,4.85
2023-02-01T17:18:37.223Z,4.91
2023-02-01T17:21:15.687Z,4.82
2023-02-01T17:24:05.940Z,4.84
2023-02-01T17:27:30.954Z,5.07
2023-02-01T17:30:38.991Z,4.97
2023-02-01T17:33:34.110Z,4.89
2023-02-01T17:36:33.991Z,4.83
2023-02-01T17:39:12.046Z,4.63
2023-02-01T17:41:49.140Z,4.50
2023-02-01T17:44:18.318Z,4.39
2023-02-01T17:46:48.973Z,4.36
2023-02-01T17:49:29.751Z,4.33
2023-02-01T17:52:16.966Z,4.30
2023-02-01T17:54:47.954Z,4.31
2023-02-01T17:57:23.840Z,4.29
2023-02-01T17:59:59.234Z,4.35
2023-02-01T18:02:35.319Z,4.29
2023-02-01T18:05:10.224Z,4.38
2023-02-01T18:08:35.177Z,4.38
2023-02-01T18:11:25.075Z,4.45
2023-02-01T18:13:58.869Z,4.47
2023-02-01T18:16:38.249Z,4.49
2023-02-01T18:19:09.598Z,4.53
2023-02-01T18:21:47.259Z,4.52
2023-02-01T18:24:34.125Z,4.57
2023-02-01T18:27:30.001Z,4.62
2023-02-01T18:30:09.881Z,4.58
2023-02-01T18:33:19.829Z,4.61
2023-02-01T18:36:01.083Z,4.43
2023-02-01T18:38:30.386Z,4.63
2023-02-01T18:41:02.734Z,4.63
2023-02-01T18:43:33.521Z,4.59
2023-02-01T18:46:02.775Z,4.62
2023-02-01T18:48:37.200Z,4.64
2023-02-01T18:51:15.140Z,4.71
2023-02-01T18:54:09.534Z,4.68
2023-02-01T18:56:41.295Z,4.64
2023-02-01T18:59:11.791Z,4.66
2023-02-01T19:01:48.171Z,4.69
2023-02-01T19:04:25.499Z,4.64
2023-02-01T19:07:03.885Z,4.66
2023-02-01T19:09:36.450Z,4.71
2023-02-01T19:12:06.778Z,4.63
2023-02-01T19:14:48.021Z,4.62
2023-02-01T19:17:23.481Z,4.55
2023-02-01T19:19:52.892Z,4.51
2023-02-01T19:22:28.136Z,4.45
2023-02-01T19:25:02.578Z,4.43
2023-02-01T19:27:39.761Z,4.39
2023-02-01T19:33:38.343Z,4.37
2023-02-01T19:36:11.233Z,4.32
2023-02-01T19:39:24.237Z,4.29
2023-02-01T19:42:35.188Z,4.29
2023-02-01T19:48:29.701Z,4.37
2023-02-01T19:51:03.750Z,4.44
2023-02-01T19:54:09.937Z,4.40
2023-02-01T19:56:55.213Z,4.34
2023-02-01T19:59:37.116Z,4.32
2023-02-01T20:02:29.002Z,4.29
2023-02-01T20:05:04.398Z,4.34
2023-02-01T20:07:41.824Z,4.38
2023-02-01T20:10:18.046Z,4.42
2023-02-01T20:13:42.962Z,4.51
2023-02-01T20:20:19.904Z,4.52
2023-02-01T20:23:09.715Z,4.49
2023-02-01T20:25:51.507Z,4.51
2023-02-01T20:28:52.563Z,4.51
2023-02-01T20:31:48.822Z,4.48
2023-02-01T20:34:24.477Z,4.58
2023-02-01T20:36:54.341Z,4.60
2023-02-01T20:39:30.078Z,4.64
2023-02-01T20:42:10.880Z,4.60
2023-02-01T20:45:10.164Z,4.57
2023-02-01T20:47:53.684Z,4.52
2023-02-01T20:50:53.124Z,4.60
2023-02-01T20:53:26.885Z,4.64
2023-02-01T20:56:26.611Z,4.61
2023-02-01T20:59:22.534Z,4.58
2023-02-01T21:02:05.782Z,4.61
2023-02-01T21:04:59.737Z,4.66
2023-02-01T21:07:35.035Z,4.70
2023-02-01T21:10:15.812Z,4.75
2023-02-01T21:42:45.966Z,4.66
2023-02-01T21:48:16.729Z,4.66
2023-02-01T21:54:13.498Z,4.42
2023-02-01T22:00:39.981Z,4.51
2023-02-01T22:03:24.113Z,4.38
2023-02-01T22:05:55.541Z,4.37
2023-02-01T22:08:34.343Z,4.19
2023-02-01T22:11:22.350Z,4.17
2023-02-01T22:14:24.043Z,4.12
2023-02-01T22:26:49.315Z,3.52
2023-02-01T22:29:43.644Z,4.07
2023-02-01T22:32:19.491Z,3.99
2023-02-01T22:35:13.529Z,3.86
2023-02-01T22:41:19.751Z,3.79
2023-02-01T22:43:49.173Z,3.69
2023-02-01T22:46:23.780Z,3.75
2023-02-01T22:49:15.304Z,3.67
2023-02-01T22:51:46.493Z,3.58
2023-02-01T22:57:08.076Z,3.44
2023-02-01T22:59:38.479Z,3.51
2023-02-01T23:02:13.525Z,3.58
2023-02-01T23:04:46.133Z,3.45
2023-02-01T23:07:23.879Z,3.31
2023-02-01T23:10:33.570Z,3.20
2023-02-01T23:13:28.094Z,3.25
2023-02-01T23:15:58.637Z,3.09
2023-02-01T23:18:59.212Z,3.11
2023-02-01T23:23:07.742Z,3.04
2023-02-01T23:25:20.266Z,3.04
2023-02-01T23:27:49.389Z,2.98
2023-02-01T23:30:25.283Z,2.97
2023-02-01T23:33:06.445Z,2.92
2023-02-01T23:35:37.477Z,2.94
2023-02-01T23:38:08.966Z,3.05
2023-02-01T23:40:39.447Z,3.13
2023-02-01T23:43:43.485Z,3.24
2023-02-01T23:46:13.543Z,3.25
2023-02-01T23:48:44.518Z,3.29
2023-02-01T23:51:20.895Z,2.84
2023-02-01T23:53:52.234Z,3.58
2023-02-01T23:57:12.693Z,3.65
2023-02-01T23:59:53.062Z,3.87
